Dragonera — 9HA2475 — position and weather

sailwx.info

Track history (hours):
 
Tides and Currents Weather Stations Pressure Air Temp Water Temp Dewpoint Dewpoint Depression Visibility Wind Speed Wind Dir Waves Ship Positions

Dragonera

Last reported at 2015-Mar-26 12:04 UTC. Time now 2015-Mar-29 22:29 UTC.
Position N 06°26' E 003°24'.

Length 180 m; draft 8.2 m.

Type: Cargo ship. MMSI: 248698000.

Date/timePositionNaut miles runAvg speedWind from/ knotsBaromVisibWave heightAir tempDewpointWater temp
2015-Mar-26 12:04N 06°26' E 003°24'1 2.3
2015-Mar-26 11:30N 06°25' E 003°24'5 5.1
2015-Mar-26 10:33N 06°20' E 003°25'5 5.0
2015-Mar-26 09:33N 06°16' E 003°26'1 0.6
2015-Mar-26 08:32N 06°16' E 003°25'4 4.0
2015-Mar-26 07:33N 06°20' E 003°25'2 1.5
2015-Mar-26 06:32N 06°21' E 003°25'3 3.2
2015-Mar-26 05:33N 06°18' E 003°25'3 2.8
2015-Mar-26 04:33N 06°15' E 003°26'1 1.1
2015-Mar-26 03:33N 06°15' E 003°25'2 2.2
2015-Mar-26 02:33N 06°15' E 003°27'1 1.1
2015-Mar-26 01:32N 06°15' E 003°26'1 1.1
2015-Mar-26 00:32N 06°14' E 003°25'1 1.1
2015-Mar-25 23:33N 06°16' E 003°25'2 1.6
2015-Mar-25 22:33N 06°17' E 003°25'0 0.3
2015-Mar-25 21:33N 06°17' E 003°25'2 1.6
2015-Mar-25 20:33N 06°17' E 003°27'1 1.1
2015-Mar-25 19:32N 06°16' E 003°26'1 1.3
2015-Mar-25 18:33N 06°16' E 003°25'1 1.4
2015-Mar-25 17:33N 06°16' E 003°26'1 0.7
2015-Mar-25 16:32N 06°16' E 003°27'1 1.0
2015-Mar-25 15:33N 06°16' E 003°26'1 1.4
2015-Mar-25 14:32N 06°17' E 003°27'1 1.1
2015-Mar-25 13:33N 06°16' E 003°27'2 1.5
2015-Mar-25 12:33N 06°15' E 003°28'2 2.2
2015-Mar-25 11:32N 06°15' E 003°26'3 2.6
2015-Mar-25 10:32N 06°17' E 003°28'2 1.8
2015-Mar-25 09:32N 06°16' E 003°26'2 1.9
2015-Mar-25 08:32N 06°14' E 003°25'9 9.3
2015-Mar-25 07:33N 06°05' E 003°26'4 0.3
2015-Mar-24 16:21N 06°05' E 003°22'1011.6
2015-Mar-24 15:27N 06°14' E 003°27'2 2.5
2015-Mar-24 14:33N 06°16' E 003°28'2 1.5
2015-Mar-24 13:30N 06°15' E 003°27'1 1.5
2015-Mar-24 12:33N 06°14' E 003°25'1 1.3
2015-Mar-24 11:33N 06°14' E 003°24'4 3.9
2015-Mar-24 10:33N 06°16' E 003°27'0 0.4
2015-Mar-24 09:32N 06°16' E 003°27'2 1.7
2015-Mar-24 08:33N 06°17' E 003°28'1 1.1
2015-Mar-24 07:32N 06°17' E 003°27'1 0.7
2015-Mar-24 06:33N 06°16' E 003°27'1 1.3
2015-Mar-24 05:33N 06°16' E 003°28'0 0.1
2015-Mar-24 04:33N 06°17' E 003°28'2 1.7
2015-Mar-24 03:33N 06°17' E 003°26'3 2.8
2015-Mar-24 02:33N 06°14' E 003°25'1211.3
2015-Mar-24 01:28N 06°02' E 003°25'  
Track history (hours):
 
Tides and Currents Weather Stations Pressure Air Temp Water Temp Dewpoint Dewpoint Depression Visibility Wind Speed Wind Dir Waves Ship Positions

Dragonera

Last reported at 2015-Mar-26 12:04 UTC. Time now 2015-Mar-29 22:29 UTC.
Position N 06°26' E 003°24'.

Length 180 m; draft 8.2 m.

Type: Cargo ship. MMSI: 248698000.

Date/timePositionNaut miles runAvg speedWind from/ knotsBaromVisibWave heightAir tempDewpointWater temp
2015-Mar-26 12:04N 06°26' E 003°24'1 2.3
2015-Mar-26 11:30N 06°25' E 003°24'5 5.1
2015-Mar-26 10:33N 06°20' E 003°25'5 5.0
2015-Mar-26 09:33N 06°16' E 003°26'1 0.6
2015-Mar-26 08:32N 06°16' E 003°25'4 4.0
2015-Mar-26 07:33N 06°20' E 003°25'2 1.5
2015-Mar-26 06:32N 06°21' E 003°25'3 3.2
2015-Mar-26 05:33N 06°18' E 003°25'3 2.8
2015-Mar-26 04:33N 06°15' E 003°26'1 1.1
2015-Mar-26 03:33N 06°15' E 003°25'2 2.2
2015-Mar-26 02:33N 06°15' E 003°27'1 1.1
2015-Mar-26 01:32N 06°15' E 003°26'1 1.1
2015-Mar-26 00:32N 06°14' E 003°25'1 1.1
2015-Mar-25 23:33N 06°16' E 003°25'2 1.6
2015-Mar-25 22:33N 06°17' E 003°25'0 0.3
2015-Mar-25 21:33N 06°17' E 003°25'2 1.6
2015-Mar-25 20:33N 06°17' E 003°27'1 1.1
2015-Mar-25 19:32N 06°16' E 003°26'1 1.3
2015-Mar-25 18:33N 06°16' E 003°25'1 1.4
2015-Mar-25 17:33N 06°16' E 003°26'1 0.7
2015-Mar-25 16:32N 06°16' E 003°27'1 1.0
2015-Mar-25 15:33N 06°16' E 003°26'1 1.4
2015-Mar-25 14:32N 06°17' E 003°27'1 1.1
2015-Mar-25 13:33N 06°16' E 003°27'2 1.5
2015-Mar-25 12:33N 06°15' E 003°28'2 2.2
2015-Mar-25 11:32N 06°15' E 003°26'3 2.6
2015-Mar-25 10:32N 06°17' E 003°28'2 1.8
2015-Mar-25 09:32N 06°16' E 003°26'2 1.9
2015-Mar-25 08:32N 06°14' E 003°25'9 9.3
2015-Mar-25 07:33N 06°05' E 003°26'4 0.3
2015-Mar-24 16:21N 06°05' E 003°22'1011.6
2015-Mar-24 15:27N 06°14' E 003°27'2 2.5
2015-Mar-24 14:33N 06°16' E 003°28'2 1.5
2015-Mar-24 13:30N 06°15' E 003°27'1 1.5
2015-Mar-24 12:33N 06°14' E 003°25'1 1.3
2015-Mar-24 11:33N 06°14' E 003°24'4 3.9
2015-Mar-24 10:33N 06°16' E 003°27'0 0.4
2015-Mar-24 09:32N 06°16' E 003°27'2 1.7
2015-Mar-24 08:33N 06°17' E 003°28'1 1.1
2015-Mar-24 07:32N 06°17' E 003°27'1 0.7
2015-Mar-24 06:33N 06°16' E 003°27'1 1.3
2015-Mar-24 05:33N 06°16' E 003°28'0 0.1
2015-Mar-24 04:33N 06°17' E 003°28'2 1.7
2015-Mar-24 03:33N 06°17' E 003°26'3 2.8
2015-Mar-24 02:33N 06°14' E 003°25'1211.3
2015-Mar-24 01:28N 06°02' E 003°25'  

Dump ship's entire track history